Data for 11/15/2013

Time Sea-Level Adjusted Pressure Absolute Pressure Temperature Relative Humidity Dew Point   
(mb) (inHg) (mb) (inHg) (C) (F) (%) (C) (F)
00:05 1010 29.83 839 24.78 -1.2 29.8 64 -7.1 19.2
00:10 1010 29.83 839 24.78 -1.3 29.7 65 -7.1 19.3
00:15 1010 29.83 839 24.78 -1.4 29.6 66 -6.9 19.5
00:20 1010 29.83 839 24.78 -1.5 29.3 66 -7 19.4
00:25 1010 29.83 839 24.78 -1.3 29.7 65 -7 19.4
00:30 1010 29.83 839 24.78 -1.2 29.9 65 -7 19.4
00:35 1010 29.83 839 24.78 -0.9 30.3 64 -6.9 19.7
00:40 1010 29.83 839 24.78 -0.9 30.5 63 -7 19.5
00:45 1010 29.83 839 24.78 -1.4 29.5 67 -6.8 19.8
00:50 1010 29.83 839 24.78 -1.8 28.8 68 -6.9 19.5
00:55 1010 29.83 839 24.78 -2 28.4 67 -7.2 19
01:00 1010 29.83 839 24.78 -2.3 27.8 70 -7 19.3
01:05 1010 29.83 839 24.78 -2.6 27.4 71 -7.2 19.1
01:10 1010 29.83 839 24.78 -2.4 27.6 70 -7.2 19.1
01:15 1010 29.83 839 24.78 -1.5 29.3 65 -7.3 18.9
01:20 1010 29.83 839 24.78 -1.2 29.9 65 -7 19.4
01:25 1010 29.83 839 24.78 -1.1 30.1 64 -7 19.3
01:30 1010 29.83 839 24.78 -1 30.3 66 -6.6 20.1
01:35 1010 29.83 839 24.78 -0.9 30.3 63 -7 19.3
01:40 1010 29.83 839 24.78 -1.1 30.1 64 -7 19.4
01:45 1010 29.83 839 24.78 -1.2 29.8 65 -7 19.3
01:50 1010 29.83 839 24.78 -1.7 29 67 -7 19.5
01:55 1010 29.83 839 24.78 -2.3 27.9 69 -7.2 19
02:00 1009 29.8 839 24.78 -2.4 27.6 69 -7.3 18.9
02:05 1009 29.8 839 24.78 -2.5 27.5 70 -7.2 19
02:10 1009 29.8 838 24.75 -2.2 28 68 -7.3 18.8
02:15 1009 29.8 838 24.75 -2 28.3 67 -7.3 18.9
02:20 1009 29.8 839 24.78 -1.7 28.9 65 -7.4 18.7
02:25 1009 29.8 839 24.78 -1.6 29.2 65 -7.3 18.9
02:30 1009 29.8 839 24.78 -1.8 28.8 67 -7.1 19.1
02:35 1009 29.8 839 24.78 -2.2 28.1 68 -7.2 19
02:40 1009 29.8 839 24.78 -2.1 28.3 68 -7.2 19.1
02:45 1009 29.8 839 24.78 -2 28.4 68 -7.2 19
02:50 1009 29.8 839 24.78 -2 28.4 67 -7.3 18.9
02:55 1009 29.8 839 24.78 -1.9 28.5 67 -7.3 18.8
03:00 1009 29.8 839 24.78 -1.8 28.8 66 -7.4 18.6
03:05 1009 29.8 839 24.78 -1.9 28.6 66 -7.4 18.7
03:10 1010 29.83 839 24.78 -2 28.4 67 -7.4 18.6
03:15 1010 29.83 839 24.78 -2.3 27.8 68 -7.4 18.6
03:20 1010 29.83 839 24.78 -2.5 27.4 68 -7.6 18.4
03:25 1010 29.83 839 24.78 -2.3 27.8 67 -7.6 18.3
03:30 1010 29.83 839 24.78 -2.1 28.2 67 -7.5 18.5
03:35 1009 29.8 839 24.78 -2.4 27.7 69 -7.4 18.7
03:40 1009 29.8 839 24.78 -2.8 27 70 -7.6 18.4
03:45 1009 29.8 839 24.78 -2.9 26.7 70 -7.7 18.1
03:50 1009 29.8 839 24.78 -2.8 27 70 -7.6 18.4
03:55 1009 29.8 839 24.78 -2.9 26.8 70 -7.6 18.3
04:00 1009 29.8 838 24.75 -2.8 26.9 70 -7.6 18.2
04:05 1009 29.8 838 24.75 -2.7 27.1 68 -7.7 18.1
04:10 1009 29.8 838 24.75 -2.3 27.9 66 -7.7 18.1
04:15 1009 29.8 838 24.75 -2.1 28.2 65 -7.8 17.9
04:20 1009 29.8 838 24.75 -2 28.5 65 -7.7 18.1
04:25 1009 29.8 838 24.75 -1.9 28.7 64 -7.8 18
04:30 1009 29.8 838 24.75 -1.8 28.7 63 -8 17.7
04:35 1009 29.8 838 24.75 -1.6 29 62 -7.9 17.7
04:40 1009 29.8 838 24.75 -1.5 29.4 62 -7.9 17.8
04:45 1009 29.8 838 24.75 -1.6 29.1 63 -7.8 17.9
04:50 1009 29.8 838 24.75 -1.5 29.3 62 -7.9 17.7
04:55 1009 29.8 838 24.75 -1.7 29 62 -8 17.6
05:00 1009 29.8 838 24.75 -1.5 29.3 61 -8.2 17.3
05:05 1009 29.8 838 24.75 -1.3 29.7 60 -8 17.5
05:10 1009 29.8 838 24.75 -1.4 29.6 60 -8.1 17.4
05:15 1009 29.8 838 24.75 -1.3 29.7 60 -8.1 17.4
05:20 1009 29.8 838 24.75 -1.3 29.6 60 -8.1 17.5
05:25 1009 29.8 838 24.75 -1.4 29.5 61 -8 17.6
05:30 1008 29.77 838 24.75 -1.9 28.6 63 -8 17.6
05:35 1008 29.77 838 24.75 -2.1 28.3 63 -8.2 17.3
05:40 1008 29.77 837 24.72 -1.9 28.7 62 -8.1 17.4
05:45 1008 29.77 837 24.72 -1.8 28.8 62 -8.1 17.5
05:50 1008 29.77 837 24.72 -2.1 28.2 64 -8 17.6
05:55 1008 29.77 837 24.72 -2.3 27.9 65 -8.1 17.5
06:00 1008 29.77 837 24.72 -2.5 27.5 65 -8.2 17.3
06:05 1008 29.77 837 24.72 -2.8 27 66 -8.2 17.3
06:10 1008 29.77 837 24.72 -3.1 26.4 68 -8.2 17.3
06:15 1008 29.77 837 24.72 -3.2 26.3 68 -8.2 17.3
06:20 1008 29.77 837 24.72 -3 26.6 68 -8.2 17.3
06:25 1008 29.77 837 24.72 -3 26.6 68 -8.1 17.4
06:30 1008 29.77 837 24.72 -3.2 26.3 69 -8 17.6
06:35 1008 29.77 837 24.72 -3.3 26 69 -8.2 17.2
06:40 1008 29.77 837 24.72 -3 26.7 67 -8.3 17.1
06:45 1008 29.77 837 24.72 -2.9 26.9 67 -8.2 17.2
06:50 1008 29.77 837 24.72 -3 26.6 68 -8 17.5
06:55 1008 29.77 837 24.72 -3.4 25.8 69 -8.3 17.1
07:00 1008 29.77 837 24.72 -3.2 26.2 71 -7.8 18
07:05 1008 29.77 837 24.72 -3.1 26.4 69 -8.1 17.4
07:10 1008 29.77 837 24.72 -3.2 26.3 69 -8.2 17.3
07:15 1008 29.77 837 24.72 -3.2 26.3 67 -8.5 16.7
07:20 1008 29.77 837 24.72 -3 26.6 66 -8.5 16.8
07:25 1008 29.77 837 24.72 -3 26.6 67 -8.4 17
07:30 1008 29.77 837 24.72 -3.1 26.5 67 -8.4 16.9
07:35 1008 29.77 837 24.72 -3.1 26.5 67 -8.4 16.8
07:40 1008 29.77 837 24.72 -2.7 27.2 65 -8.5 16.7
07:45 1008 29.77 837 24.72 -2.4 27.6 64 -8.4 17
07:50 1008 29.77 837 24.72 -2.4 27.7 64 -8.3 17
07:55 1008 29.77 837 24.72 -2.3 27.9 63 -8.4 17
08:00 1008 29.77 837 24.72 -2.2 28 62 -8.5 16.7
08:05 1008 29.77 837 24.72 -2.2 28.1 63 -8.3 17
08:10 1008 29.77 837 24.72 -2.2 28 63 -8.4 16.9
08:15 1008 29.77 837 24.72 -2.2 28.1 62 -8.5 16.8
08:20 1008 29.77 837 24.72 -2.1 28.2 63 -8.3 17.1
08:25 1008 29.77 837 24.72 -2.4 27.8 64 -8.4 17
08:30 1008 29.77 837 24.72 -2.6 27.4 64 -8.4 16.8
08:35 1008 29.77 837 24.72 -3.2 26.3 67 -8.5 16.8
08:40 1008 29.77 837 24.72 -3.4 25.9 67 -8.6 16.5
08:45 1008 29.77 837 24.72 -3.2 26.2 67 -8.6 16.5
08:50 1008 29.77 837 24.72 -2.9 26.7 65 -8.6 16.5
08:55 1008 29.77 837 24.72 -2.3 27.8 63 -8.5 16.7
09:00 1008 29.77 837 24.72 -1.9 28.6 61 -8.4 16.9
09:05 1008 29.77 837 24.72 -1.4 29.5 58 -8.6 16.5
09:10 1008 29.77 837 24.72 -1.5 29.3 59 -8.5 16.7
09:15 1008 29.77 837 24.72 -1.7 29 59 -8.6 16.5
09:20 1008 29.77 837 24.72 -1.7 29 59 -8.7 16.4
09:25 1008 29.77 837 24.72 -1.4 29.5 59 -8.3 17
09:30 1008 29.77 837 24.72 -1.2 29.8 58 -8.3 17
09:35 1008 29.77 837 24.72 -1 30.1 58 -8.2 17.2
09:40 1008 29.77 837 24.72 -0.9 30.3 59 -8 17.6
09:45 1008 29.77 837 24.72 -0.9 30.4 58 -8.1 17.3
09:50 1008 29.77 837 24.72 -0.8 30.6 57 -8.2 17.3
09:55 1008 29.77 837 24.72 -0.5 31 57 -8 17.6
10:00 1008 29.77 837 24.72 -0.4 31.3 56 -8.1 17.5
10:05 1008 29.77 837 24.72 -0.1 31.8 56 -8 17.6
10:10 1008 29.77 837 24.72 -0.1 31.8 56 -7.8 18
10:15 1008 29.77 837 24.72 -0.3 31.4 57 -7.7 18.1
10:20 1008 29.77 837 24.72 -0.4 31.3 57 -7.9 17.8
10:25 1008 29.77 837 24.72 -0.4 31.2 58 -7.7 18.1
10:30 1008 29.77 837 24.72 -0.5 31.1 58 -7.8 18
10:35 1008 29.77 837 24.72 -0.4 31.2 57 -7.8 17.9
10:40 1008 29.77 837 24.72 -0.2 31.6 56 -7.9 17.8
10:45 1008 29.77 837 24.72 -0.1 31.8 56 -7.9 17.9
10:50 1008 29.77 837 24.72 -0 31.9 56 -7.8 18
10:55 1008 29.77 837 24.72 0 32 56 -7.8 18
11:00 1007 29.74 837 24.72 0.2 32.3 56 -7.5 18.5
11:05 1007 29.74 837 24.72 0.3 32.6 55 -7.7 18.2
11:10 1007 29.74 837 24.72 0.4 32.7 56 -7.5 18.5
11:15 1007 29.74 836 24.69 0.6 33.1 55 -7.5 18.4
11:20 1007 29.74 836 24.69 0.7 33.3 54 -7.5 18.6
11:25 1007 29.74 836 24.69 0.9 33.5 53 -7.7 18.2
11:30 1007 29.74 836 24.69 2 35.5 50 -7.4 18.7
11:35 1007 29.74 836 24.69 2.9 37.3 46 -7.5 18.6
11:40 1007 29.74 836 24.69 3.3 37.9 46 -7.2 19
11:45 1007 29.74 836 24.69 3.4 38.2 46 -7.1 19.3
11:50 1007 29.74 836 24.69 3.8 38.8 44 -7.3 18.9
11:55 1007 29.74 836 24.69 4.4 39.9 41 -7.6 18.3
12:00 1006 29.71 836 24.69 5.1 41.2 39 -7.9 17.9
12:05 1006 29.71 836 24.69 4.8 40.6 39 -8 17.6
12:10 1006 29.71 835 24.66 4.1 39.4 35 -9.9 14.2
12:15 1006 29.71 835 24.66 4.1 39.3 34 -10.5 13.2
12:20 1006 29.71 835 24.66 4.2 39.5 34 -10.5 13.1
12:25 1006 29.71 835 24.66 4.1 39.3 33 -10.9 12.4
12:30 1006 29.71 835 24.66 4.5 40.2 32 -10.7 12.7
12:35 1006 29.71 835 24.66 4.7 40.5 32 -10.8 12.5
12:40 1006 29.71 835 24.66 4.8 40.6 31 -10.8 12.6
12:45 1005 29.68 835 24.66 5.1 41.2 31 -10.6 12.9
12:50 1005 29.68 835 24.66 4.9 40.8 32 -10.5 13.1
12:55 1005 29.68 834 24.63 4.7 40.4 32 -10.7 12.8
13:00 1005 29.68 834 24.63 5 41 30 -11 12.2
13:05 1005 29.68 834 24.63 5 41 30 -11.2 11.8
13:10 1005 29.68 834 24.63 5.6 42 29 -11 12.2
13:15 1005 29.68 834 24.63 5.5 41.9 30 -10.9 12.3
13:20 1005 29.68 834 24.63 5.6 42.1 30 -10.7 12.7
13:25 1005 29.68 834 24.63 5.1 41.3 30 -11.1 12
13:30 1005 29.68 834 24.63 5.4 41.8 30 -11 12.2
13:35 1005 29.68 834 24.63 5.6 42.1 29 -10.9 12.4
13:40 1005 29.68 834 24.63 5.7 42.2 29 -11 12.2
13:45 1004 29.65 834 24.63 5.8 42.4 28 -11.5 11.3
13:50 1004 29.65 834 24.63 5.9 42.6 28 -11.1 12.1
13:55 1004 29.65 833 24.6 5.9 42.7 28 -11.2 11.8
14:00 1004 29.65 833 24.6 5.8 42.5 28 -11.5 11.3
14:05 1004 29.65 833 24.6 6 42.8 28 -11.2 11.8
14:10 1004 29.65 833 24.6 6.3 43.4 27 -11.2 11.8
14:15 1004 29.65 833 24.6 6.5 43.7 28 -10.9 12.5
14:20 1004 29.65 833 24.6 6.4 43.6 27 -11.2 11.9
14:25 1004 29.65 833 24.6 6.2 43.1 28 -11.1 12
14:30 1004 29.65 833 24.6 6.3 43.3 27 -11.2 11.8
14:35 1004 29.65 833 24.6 6 42.9 29 -10.9 12.4
14:40 1003 29.62 833 24.6 6.3 43.4 28 -11.1 12
14:45 1003 29.62 833 24.6 6 42.9 28 -11 12.2
14:50 1003 29.62 832 24.57 6.2 43.1 28 -10.9 12.4
14:55 1003 29.62 832 24.57 6.4 43.5 28 -10.9 12.4
15:00 1003 29.62 832 24.57 6.5 43.7 28 -10.8 12.5
15:05 1003 29.62 832 24.57 6.6 43.9 27 -10.9 12.3
15:10 1003 29.62 832 24.57 6.5 43.7 28 -10.9 12.3
15:15 1003 29.62 832 24.57 6.6 43.9 27 -10.9 12.4
15:20 1003 29.62 832 24.57 6.7 44 28 -10.8 12.6
15:25 1003 29.62 832 24.57 6.6 44 27 -10.8 12.5
15:30 1003 29.62 832 24.57 6.6 43.8 27 -11 12.1
15:35 1002 29.59 832 24.57 6.6 43.8 27 -11.2 11.9
15:40 1002 29.59 832 24.57 6.5 43.7 28 -11 12.2
15:45 1002 29.59 832 24.57 6.4 43.6 28 -10.9 12.3
15:50 1002 29.59 832 24.57 6.4 43.5 28 -11 12.2
15:55 1002 29.59 831 24.54 6.6 43.8 27 -11 12.1
16:00 1002 29.59 831 24.54 6.6 43.8 28 -10.8 12.6
16:05 1002 29.59 831 24.54 6.2 43.2 28 -10.8 12.6
16:10 1002 29.59 831 24.54 6.5 43.8 27 -11.1 12
16:15 1002 29.59 831 24.54 6.7 44.1 27 -10.9 12.4
16:20 1002 29.59 831 24.54 6.4 43.5 28 -11 12.2
16:25 1002 29.59 831 24.54 6.1 43 28 -10.9 12.4
16:30 1002 29.59 831 24.54 6.2 43.2 28 -11.2 11.9
16:35 1002 29.59 831 24.54 6.7 44.1 27 -11 12.1
16:40 1002 29.59 831 24.54 6.9 44.5 27 -11 12.2
16:45 1002 29.59 831 24.54 6.7 44.1 27 -10.9 12.4
16:50 1002 29.59 831 24.54 6.3 43.3 28 -11.2 11.9
16:55 1002 29.59 831 24.54 6.3 43.4 27 -11.2 11.9
17:00 1001 29.56 831 24.54 6.2 43.1 28 -11.2 11.9
17:05 1001 29.56 831 24.54 5.9 42.6 28 -11.2 11.8
17:10 1001 29.56 831 24.54 5.8 42.4 29 -11.1 12.1
17:15 1001 29.56 831 24.54 5.6 42.1 29 -10.9 12.3
17:20 1001 29.56 831 24.54 5.5 41.8 30 -11 12.3
17:25 1001 29.56 831 24.54 5.3 41.6 30 -10.9 12.4
17:30 1002 29.59 831 24.54 5.2 41.3 30 -11 12.2
17:35 1002 29.59 831 24.54 5.1 41.2 30 -10.9 12.3
17:40 1002 29.59 831 24.54 4.9 40.9 31 -10.7 12.7
17:45 1002 29.59 831 24.54 4.8 40.7 32 -10.7 12.7
17:50 1002 29.59 831 24.54 4.7 40.5 32 -10.8 12.6
17:55 1002 29.59 831 24.54 4.6 40.2 32 -10.8 12.6
18:00 1002 29.59 831 24.54 4.5 40.1 32 -10.7 12.7
18:05 1002 29.59 831 24.54 4.4 40 33 -10.6 12.9
18:10 1002 29.59 831 24.54 4.4 40 33 -10.6 12.9
18:15 1002 29.59 831 24.54 4.4 39.9 33 -10.6 13
18:20 1002 29.59 831 24.54 4.4 39.9 33 -10.5 13
18:25 1002 29.59 831 24.54 4.3 39.8 33 -10.7 12.7
18:30 1002 29.59 831 24.54 4.3 39.8 33 -10.6 12.9
18:35 1002 29.59 831 24.54 4.3 39.7 33 -10.6 12.9
18:40 1001 29.56 831 24.54 4.2 39.6 34 -10.5 13.1
18:45 1001 29.56 831 24.54 4.2 39.5 33 -10.6 12.9
18:50 1001 29.56 831 24.54 4.2 39.6 33 -10.6 12.9
18:55 1002 29.59 831 24.54 4.1 39.4 34 -10.6 13
19:00 1002 29.59 831 24.54 4.1 39.3 35 -10.2 13.7
19:05 1002 29.59 831 24.54 4 39.2 34 -10.5 13.1
19:10 1001 29.56 831 24.54 4 39.2 34 -10.5 13.2
19:15 1001 29.56 831 24.54 4.2 39.5 34 -10.3 13.5
19:20 1001 29.56 831 24.54 4.4 39.9 33 -10.3 13.4
19:25 1001 29.56 830 24.51 4.4 40 33 -10.4 13.3
19:30 1001 29.56 830 24.51 4.5 40.1 33 -10.6 12.9
19:35 1001 29.56 830 24.51 4.5 40.1 32 -10.7 12.8
19:40 1001 29.56 830 24.51 4.4 40 33 -10.5 13
19:45 1001 29.56 830 24.51 4.3 39.8 33 -10.7 12.8
19:50 1001 29.56 830 24.51 4.3 39.8 33 -10.4 13.2
19:55 1001 29.56 830 24.51 4.2 39.6 34 -10.4 13.3
20:00 1001 29.56 830 24.51 4.1 39.4 34 -10.2 13.6
20:05 1001 29.56 830 24.51 4.1 39.3 36 -9.7 14.6
20:10 1001 29.56 830 24.51 3.9 39.1 37 -9.3 15.2
20:15 1001 29.56 830 24.51 3.8 38.9 37 -9.7 14.6
20:20 1001 29.56 830 24.51 3.9 39 37 -9.7 14.6
20:25 1001 29.56 830 24.51 3.9 39 37 -9.5 14.9
20:30 1001 29.56 830 24.51 3.8 38.9 38 -9.4 15.1
20:35 1001 29.56 830 24.51 3.7 38.7 38 -9.2 15.5
20:40 1000 29.53 830 24.51 3.7 38.6 39 -9 15.8
20:45 1000 29.53 830 24.51 3.6 38.4 39 -9.2 15.5
20:50 1000 29.53 829 24.48 3.5 38.3 39 -9.2 15.5
20:55 1000 29.53 829 24.48 3.5 38.3 39 -9.1 15.6
21:00 1000 29.53 829 24.48 3.4 38.2 40 -9 15.8
21:05 1000 29.53 829 24.48 3.3 38 39 -9.4 15
21:10 1000 29.53 829 24.48 3.4 38.1 39 -9.2 15.4
21:15 1000 29.53 829 24.48 3.4 38.1 39 -9.2 15.4
21:20 1000 29.53 829 24.48 3.4 38.1 39 -9.3 15.2
21:25 1000 29.53 829 24.48 3.3 37.9 40 -9.1 15.7
21:30 1000 29.53 829 24.48 3.2 37.8 39 -9.4 15
21:35 1000 29.53 829 24.48 3.3 37.9 39 -9.4 15
21:40 1000 29.53 829 24.48 3.4 38.1 38 -9.6 14.6
21:45 1000 29.53 829 24.48 3.5 38.2 38 -9.5 14.8
21:50 1000 29.53 829 24.48 3.4 38.2 38 -9.4 15
21:55 1000 29.53 829 24.48 3.5 38.2 39 -9.2 15.4
22:00 1000 29.53 829 24.48 3.4 38.2 39 -9.2 15.4
22:05 1000 29.53 829 24.48 3.5 38.2 40 -9 15.8
22:10 1000 29.53 829 24.48 3.4 38.1 40 -8.9 15.9
22:15 999 29.5 829 24.48 3.3 38 40 -8.9 15.9
22:20 999 29.5 829 24.48 3.2 37.8 42 -8.6 16.5
22:25 999 29.5 829 24.48 3.1 37.6 42 -8.5 16.6
22:30 999 29.5 829 24.48 3.2 37.7 42 -8.4 16.8
22:35 999 29.5 829 24.48 3.1 37.6 42 -8.5 16.7
22:40 999 29.5 828 24.45 3.1 37.6 42 -8.5 16.7
22:45 999 29.5 828 24.45 3.2 37.7 42 -8.5 16.7
22:50 999 29.5 828 24.45 3.1 37.6 42 -8.6 16.5
22:55 999 29.5 828 24.45 3 37.5 43 -8.4 16.9
23:00 999 29.5 828 24.45 3 37.4 43 -8.2 17.2
23:05 999 29.5 828 24.45 3 37.4 44 -8.1 17.4
23:10 999 29.5 828 24.45 3.1 37.5 44 -8.1 17.5
23:15 999 29.5 828 24.45 3.1 37.6 44 -8.1 17.4
23:20 999 29.5 828 24.45 3.2 37.8 43 -8 17.5
23:25 999 29.5 828 24.45 3.3 37.9 44 -7.9 17.7
23:30 999 29.5 828 24.45 3.3 37.9 45 -7.6 18.3
23:35 999 29.5 828 24.45 3.2 37.7 45 -7.7 18.2
23:40 999 29.5 828 24.45 3.1 37.5 45 -7.8 17.9
23:45 999 29.5 828 24.45 3.2 37.7 44 -7.9 17.8
23:50 999 29.5 828 24.45 3.2 37.7 44 -7.9 17.8
23:55 999 29.5 828 24.45 3.2 37.7 44 -8 17.7
24:00 999 29.5 828 24.45 3.3 37.9 43 -8.1 17.5